createdAt,value
2023-01-12T00:00:07.330Z,87
2023-01-12T00:03:32.519Z,87
2023-01-12T00:06:57.787Z,88
2023-01-12T00:10:23.008Z,88
2023-01-12T00:13:48.282Z,88
2023-01-12T00:17:13.526Z,89
2023-01-12T00:20:38.784Z,90
2023-01-12T00:24:04.020Z,89
2023-01-12T00:27:29.266Z,89
2023-01-12T00:30:54.637Z,89
2023-01-12T00:34:19.765Z,88
2023-01-12T00:37:45.083Z,88
2023-01-12T00:41:10.345Z,88
2023-01-12T00:44:35.622Z,87
2023-01-12T00:48:00.866Z,87
2023-01-12T00:51:26.082Z,88
2023-01-12T00:54:51.319Z,88
2023-01-12T00:58:16.579Z,88
2023-01-12T01:01:41.954Z,88
2023-01-12T01:05:07.127Z,88
2023-01-12T01:08:32.360Z,88
2023-01-12T01:11:57.601Z,87
2023-01-12T01:15:22.850Z,88
2023-01-12T01:18:48.110Z,87
2023-01-12T01:22:13.405Z,87
2023-01-12T01:25:38.610Z,86
2023-01-12T01:29:03.870Z,87
2023-01-12T01:32:29.115Z,87
2023-01-12T01:35:54.362Z,87
2023-01-12T01:39:19.630Z,87
2023-01-12T01:42:44.853Z,88
2023-01-12T01:46:10.153Z,88
2023-01-12T01:49:35.339Z,88
2023-01-12T01:53:00.593Z,88
2023-01-12T01:56:25.906Z,88
2023-01-12T01:59:51.122Z,88
2023-01-12T02:03:16.377Z,88
2023-01-12T02:06:41.648Z,88
2023-01-12T02:10:06.916Z,88
2023-01-12T02:13:32.174Z,89
2023-01-12T02:16:57.423Z,89
2023-01-12T02:20:22.648Z,89
2023-01-12T02:23:47.896Z,90
2023-01-12T02:27:13.163Z,90
2023-01-12T02:30:38.442Z,90
2023-01-12T02:34:03.693Z,90
2023-01-12T02:37:28.915Z,90
2023-01-12T02:40:54.171Z,90
2023-01-12T02:44:19.412Z,90
2023-01-12T02:47:44.688Z,90
2023-01-12T02:51:09.911Z,90
2023-01-12T02:54:35.134Z,90
2023-01-12T02:58:00.387Z,90
2023-01-12T03:01:25.779Z,90
2023-01-12T03:04:50.954Z,90
2023-01-12T03:08:16.168Z,90
2023-01-12T03:11:41.421Z,89
2023-01-12T03:15:06.671Z,90
2023-01-12T03:18:31.895Z,90
2023-01-12T03:21:57.298Z,90
2023-01-12T03:25:22.424Z,90
2023-01-12T03:28:47.676Z,90
2023-01-12T03:32:12.951Z,90
2023-01-12T03:35:38.186Z,90
2023-01-12T03:39:03.465Z,91
2023-01-12T03:42:28.715Z,91
2023-01-12T03:45:53.963Z,91
2023-01-12T03:49:19.237Z,91
2023-01-12T03:52:44.483Z,91
2023-01-12T03:56:09.758Z,91
2023-01-12T03:59:34.984Z,92
2023-01-12T04:03:00.323Z,92
2023-01-12T04:06:25.484Z,93
2023-01-12T04:09:50.735Z,93
2023-01-12T04:13:15.989Z,93
2023-01-12T04:16:41.323Z,93
2023-01-12T04:20:06.505Z,93
2023-01-12T04:23:31.783Z,93
2023-01-12T04:26:57.015Z,93
2023-01-12T04:30:22.283Z,93
2023-01-12T04:33:47.524Z,93
2023-01-12T04:37:12.853Z,93
2023-01-12T04:40:38.146Z,92
2023-01-12T04:44:03.407Z,92
2023-01-12T04:47:28.657Z,92
2023-01-12T04:50:53.873Z,92
2023-01-12T04:54:19.095Z,92
2023-01-12T04:57:44.342Z,92
2023-01-12T05:01:09.595Z,92
2023-01-12T05:04:34.844Z,93
2023-01-12T05:08:00.077Z,94
2023-01-12T05:11:25.381Z,94
2023-01-12T05:14:50.658Z,93
2023-01-12T05:18:15.886Z,93
2023-01-12T05:21:41.162Z,93
2023-01-12T05:25:06.374Z,93
2023-01-12T05:28:31.622Z,93
2023-01-12T05:31:56.862Z,93
2023-01-12T05:35:22.086Z,93
2023-01-12T05:38:47.375Z,93
2023-01-12T05:42:12.584Z,93
2023-01-12T05:45:37.860Z,93
2023-01-12T05:49:03.109Z,93
2023-01-12T05:52:28.361Z,93
2023-01-12T05:55:53.619Z,92
2023-01-12T05:59:18.845Z,91
2023-01-12T06:02:44.123Z,90
2023-01-12T06:06:09.400Z,90
2023-01-12T06:09:34.684Z,91
2023-01-12T06:12:59.999Z,92
2023-01-12T06:16:25.311Z,92
2023-01-12T06:19:50.552Z,92
2023-01-12T06:23:15.792Z,92
2023-01-12T06:26:41.063Z,92
2023-01-12T06:30:06.374Z,92
2023-01-12T06:33:31.631Z,92
2023-01-12T06:36:56.924Z,92
2023-01-12T06:40:22.172Z,92
2023-01-12T06:43:47.521Z,92
2023-01-12T06:47:12.811Z,92
2023-01-12T06:50:38.045Z,92
2023-01-12T06:54:03.357Z,92
2023-01-12T06:57:28.594Z,92
2023-01-12T07:00:53.925Z,91
2023-01-12T07:04:19.214Z,91
2023-01-12T07:07:44.445Z,91
2023-01-12T07:11:09.672Z,91
2023-01-12T07:14:34.939Z,90
2023-01-12T07:18:00.277Z,90
2023-01-12T07:21:25.635Z,90
2023-01-12T07:24:50.840Z,90
2023-01-12T07:28:16.123Z,91
2023-01-12T07:31:41.397Z,90
2023-01-12T07:35:06.650Z,90
2023-01-12T07:38:31.913Z,90
2023-01-12T07:41:57.140Z,89
2023-01-12T07:45:22.381Z,89
2023-01-12T07:48:47.639Z,90
2023-01-12T07:52:12.992Z,90
2023-01-12T07:55:38.343Z,88
2023-01-12T07:59:03.617Z,86
2023-01-12T08:02:28.979Z,85
2023-01-12T08:05:54.271Z,85
2023-01-12T08:09:19.527Z,86
2023-01-12T08:12:44.887Z,85
2023-01-12T08:16:10.203Z,86
2023-01-12T08:19:35.462Z,85
2023-01-12T08:23:00.843Z,85
2023-01-12T08:26:26.099Z,86
2023-01-12T08:29:51.496Z,85
2023-01-12T08:33:16.740Z,86
2023-01-12T08:36:43.861Z,86
2023-01-12T08:40:07.343Z,85
2023-01-12T08:43:32.635Z,86
2023-01-12T08:46:58.049Z,85
2023-01-12T08:50:23.253Z,85
2023-01-12T08:53:48.505Z,85
2023-01-12T08:57:13.792Z,85
2023-01-12T09:00:39.088Z,87
2023-01-12T09:04:04.380Z,87
2023-01-12T09:07:29.626Z,88
2023-01-12T09:10:54.880Z,88
2023-01-12T09:14:20.203Z,88
2023-01-12T09:17:45.504Z,88
2023-01-12T09:21:10.824Z,88
2023-01-12T09:24:36.043Z,88
2023-01-12T09:28:01.353Z,88
2023-01-12T09:31:26.606Z,89
2023-01-12T09:34:51.854Z,90
2023-01-12T09:38:17.183Z,92
2023-01-12T09:41:42.438Z,93
2023-01-12T09:45:07.694Z,93
2023-01-12T09:48:33.036Z,93
2023-01-12T09:51:58.298Z,94
2023-01-12T09:55:23.602Z,94
2023-01-12T09:58:48.891Z,93
2023-01-12T10:02:14.278Z,94
2023-01-12T10:05:40.152Z,93
2023-01-12T10:09:04.801Z,94
2023-01-12T10:12:30.095Z,94
2023-01-12T10:15:55.325Z,94
2023-01-12T10:19:20.766Z,94
2023-01-12T10:22:46.009Z,94
2023-01-12T10:26:11.408Z,94
2023-01-12T10:29:36.771Z,94
2023-01-12T10:33:02.035Z,94
2023-01-12T10:36:27.418Z,94
2023-01-12T10:39:52.819Z,94
2023-01-12T10:43:19.988Z,94
2023-01-12T10:46:43.527Z,94
2023-01-12T10:50:08.775Z,94
2023-01-12T10:53:34.289Z,95
2023-01-12T10:56:59.713Z,95
2023-01-12T11:00:26.295Z,95
2023-01-12T11:03:50.292Z,95
2023-01-12T11:07:16.448Z,94
2023-01-12T11:10:41.731Z,94
2023-01-12T11:14:07.199Z,94
2023-01-12T11:17:32.556Z,95
2023-01-12T11:20:58.008Z,95
2023-01-12T11:24:23.368Z,95
2023-01-12T11:27:48.807Z,94
2023-01-12T11:31:15.102Z,95
2023-01-12T11:34:48.016Z,95
2023-01-12T11:38:15.501Z,94
2023-01-12T11:41:40.879Z,94
2023-01-12T11:45:06.358Z,94
2023-01-12T11:48:31.767Z,94
2023-01-12T11:51:57.164Z,94
2023-01-12T11:55:22.655Z,94
2023-01-12T11:58:47.988Z,95
2023-01-12T12:02:13.480Z,95
2023-01-12T12:05:41.184Z,95
2023-01-12T12:09:04.286Z,95
2023-01-12T12:12:29.569Z,95
2023-01-12T12:15:54.877Z,95
2023-01-12T12:19:20.159Z,94
2023-01-12T12:22:45.468Z,95
2023-01-12T12:26:10.774Z,94
2023-01-12T12:29:36.194Z,94
2023-01-12T12:33:01.531Z,94
2023-01-12T12:36:26.940Z,95
2023-01-12T12:39:52.242Z,93
2023-01-12T12:43:17.533Z,94
2023-01-12T12:46:42.939Z,95
2023-01-12T12:50:08.283Z,94
2023-01-12T12:53:33.595Z,94
2023-01-12T12:56:58.901Z,94
2023-01-12T13:00:24.270Z,94
2023-01-12T13:03:49.493Z,94
2023-01-12T13:07:14.726Z,94
2023-01-12T13:10:40.046Z,94
2023-01-12T13:14:05.365Z,94
2023-01-12T13:17:30.657Z,94
2023-01-12T13:20:55.994Z,94
2023-01-12T13:24:21.301Z,94
2023-01-12T13:27:46.703Z,94
2023-01-12T13:31:12.105Z,94
2023-01-12T13:34:37.511Z,94
2023-01-12T13:38:03.027Z,94
2023-01-12T13:41:28.254Z,94
2023-01-12T13:44:53.753Z,95
2023-01-12T13:48:19.194Z,94
2023-01-12T13:51:44.535Z,94
2023-01-12T13:55:09.857Z,94
2023-01-12T13:58:35.084Z,94
2023-01-12T14:02:00.433Z,94
2023-01-12T14:05:25.713Z,94
2023-01-12T14:08:52.326Z,94
2023-01-12T14:12:16.295Z,94
2023-01-12T14:15:41.620Z,94
2023-01-12T14:19:06.937Z,94
2023-01-12T14:22:32.281Z,94
2023-01-12T14:25:57.667Z,95
2023-01-12T14:29:23.035Z,95
2023-01-12T15:05:34.921Z,95
2023-01-12T15:09:00.277Z,95
2023-01-12T15:12:25.652Z,95
2023-01-12T15:15:51.031Z,95
2023-01-12T15:19:16.362Z,95
2023-01-12T15:22:41.749Z,95
2023-01-12T15:26:07.051Z,95
2023-01-12T15:29:32.377Z,95
2023-01-12T15:32:57.706Z,95
2023-01-12T15:36:22.940Z,95
2023-01-12T15:39:48.260Z,95
2023-01-12T15:43:13.471Z,95
2023-01-12T15:46:38.748Z,95
2023-01-12T15:50:03.999Z,95
2023-01-12T15:53:29.271Z,95
2023-01-12T15:56:54.576Z,96
2023-01-12T16:00:19.820Z,96
2023-01-12T16:04:05.183Z,96
2023-01-12T16:07:10.400Z,96
2023-01-12T16:10:35.694Z,96
2023-01-12T16:14:00.963Z,96
2023-01-12T16:17:26.239Z,96
2023-01-12T16:20:51.624Z,96
2023-01-12T16:24:16.909Z,96
2023-01-12T16:27:43.421Z,96
2023-01-12T16:31:08.688Z,96
2023-01-12T16:34:34.359Z,96
2023-01-12T16:37:59.664Z,96
2023-01-12T16:41:24.911Z,96
2023-01-12T16:44:50.191Z,96
2023-01-12T16:48:15.473Z,96
2023-01-12T16:51:40.685Z,96
2023-01-12T16:55:05.931Z,96
2023-01-12T16:58:31.187Z,96
2023-01-12T17:01:56.738Z,96
2023-01-12T17:05:21.939Z,96
2023-01-12T17:08:47.427Z,94
2023-01-12T17:12:13.303Z,95
2023-01-12T17:15:38.813Z,95
2023-01-12T17:19:04.160Z,95
2023-01-12T17:22:29.559Z,96
2023-01-12T17:25:55.774Z,96
2023-01-12T17:29:20.472Z,96
2023-01-12T17:32:45.989Z,97
2023-01-12T17:36:11.524Z,96
2023-01-12T17:39:37.001Z,96
2023-01-12T17:43:02.376Z,96
2023-01-12T17:49:55.290Z,96
2023-01-12T17:53:21.125Z,96
2023-01-12T17:56:46.844Z,96
2023-01-12T18:00:12.453Z,96
2023-01-12T18:03:37.982Z,96
2023-01-12T18:07:03.578Z,96
2023-01-12T18:10:29.186Z,96
2023-01-12T18:13:54.747Z,96
2023-01-12T18:17:20.303Z,96
2023-01-12T18:20:46.030Z,96
2023-01-12T18:24:11.608Z,96
2023-01-12T18:27:38.090Z,96
2023-01-12T18:31:03.849Z,96
2023-01-12T18:34:29.421Z,96
2023-01-12T18:37:55.147Z,96
2023-01-12T18:41:20.693Z,96
2023-01-12T18:44:46.231Z,96
2023-01-12T18:48:11.883Z,96
2023-01-12T18:51:37.349Z,96
2023-01-12T18:55:03.119Z,95
2023-01-12T18:58:28.832Z,95
2023-01-12T19:01:54.458Z,94
2023-01-12T19:05:20.079Z,94
2023-01-12T19:08:45.606Z,94
2023-01-12T19:12:11.849Z,94
2023-01-12T19:15:37.367Z,94
2023-01-12T19:19:03.221Z,94
2023-01-12T19:22:28.844Z,94
2023-01-12T19:25:54.337Z,94
2023-01-12T19:29:20.624Z,95
2023-01-12T19:32:46.238Z,95
2023-01-12T19:36:11.834Z,95
2023-01-12T19:39:37.467Z,95
2023-01-12T19:43:02.938Z,95
2023-01-12T19:46:28.581Z,95
2023-01-12T19:49:56.875Z,95
2023-01-12T19:53:22.402Z,95
2023-01-12T19:56:47.975Z,95
2023-01-12T20:00:13.487Z,95
2023-01-12T20:03:39.134Z,95
2023-01-12T20:07:04.652Z,95
2023-01-12T20:10:30.142Z,95
2023-01-12T20:13:55.733Z,95
2023-01-12T20:17:21.182Z,95
2023-01-12T20:20:46.643Z,95
2023-01-12T20:24:12.668Z,95
2023-01-12T20:27:38.096Z,95
2023-01-12T20:31:03.635Z,95
2023-01-12T20:34:29.070Z,95
2023-01-12T20:37:54.569Z,95
2023-01-12T20:41:20.089Z,95
2023-01-12T20:44:45.621Z,95
2023-01-12T20:48:13.256Z,95
2023-01-12T20:51:36.654Z,95
2023-01-12T20:55:02.141Z,95
2023-01-12T20:58:27.466Z,95
2023-01-12T21:01:52.929Z,96
2023-01-12T21:05:18.089Z,96
2023-01-12T21:08:43.386Z,96
2023-01-12T21:12:08.640Z,96
2023-01-12T21:15:33.931Z,96
2023-01-12T21:18:59.271Z,96
2023-01-12T21:22:24.623Z,95
2023-01-12T21:25:49.962Z,95
2023-01-12T21:29:15.271Z,95
2023-01-12T21:32:40.587Z,95
2023-01-12T21:36:05.922Z,95
2023-01-12T21:39:31.185Z,95
2023-01-12T21:42:56.526Z,95
2023-01-12T21:46:21.846Z,95
2023-01-12T21:49:47.163Z,95
2023-01-12T21:53:12.503Z,95
2023-01-12T21:56:37.839Z,95
2023-01-12T22:00:03.077Z,95
2023-01-12T22:03:28.443Z,95
2023-01-12T22:06:53.801Z,96
2023-01-12T22:10:19.192Z,96
2023-01-12T22:13:44.435Z,96
2023-01-12T22:17:09.718Z,95
2023-01-12T22:20:35.016Z,95
2023-01-12T22:24:00.328Z,95
2023-01-12T22:27:26.714Z,95
2023-01-12T22:30:50.946Z,95
2023-01-12T22:34:16.203Z,95
2023-01-12T22:37:41.515Z,95
2023-01-12T22:41:07.517Z,95
2023-01-12T22:44:32.777Z,96
2023-01-12T22:47:58.085Z,96
2023-01-12T22:51:23.355Z,96
2023-01-12T22:54:48.719Z,96
2023-01-12T22:58:14.047Z,96
2023-01-12T23:01:39.679Z,95
2023-01-12T23:05:05.481Z,95
2023-01-12T23:08:31.236Z,95
2023-01-12T23:11:57.009Z,95
2023-01-12T23:15:22.815Z,95
2023-01-12T23:18:48.608Z,94
2023-01-12T23:22:14.410Z,94
2023-01-12T23:25:40.226Z,95
2023-01-12T23:29:06.025Z,95
2023-01-12T23:32:31.829Z,95
2023-01-12T23:35:57.611Z,95
2023-01-12T23:39:23.428Z,94
2023-01-12T23:42:49.223Z,95
2023-01-12T23:46:15.018Z,95
2023-01-12T23:49:40.772Z,95
2023-01-12T23:53:06.589Z,95
2023-01-12T23:56:32.388Z,95
2023-01-12T23:59:58.235Z,95
